createdAt,value
2022-09-24T00:02:02.199Z,49.95
2022-09-24T00:04:30.136Z,50.15
2022-09-24T00:06:57.930Z,50.13
2022-09-24T00:09:25.654Z,50.11
2022-09-24T00:11:53.864Z,50.04
2022-09-24T00:14:21.697Z,50.04
2022-09-24T00:16:50.026Z,50.28
2022-09-24T00:19:17.848Z,50.01
2022-09-24T00:21:45.584Z,50.25
2022-09-24T00:24:36.384Z,49.91
2022-09-24T00:27:06.377Z,50.12
2022-09-24T00:29:35.838Z,50.11
2022-09-24T00:32:05.691Z,50.22
2022-09-24T00:34:34.238Z,50.13
2022-09-24T00:37:02.193Z,50.14
2022-09-24T00:39:30.148Z,50.12
2022-09-24T00:41:57.882Z,49.98
2022-09-24T00:44:50.923Z,50.10
2022-09-24T00:47:29.452Z,50.24
2022-09-24T00:50:23.568Z,50.46
2022-09-24T00:53:06.260Z,50.02
2022-09-24T00:55:37.026Z,49.92
2022-09-24T00:58:08.631Z,50.10
2022-09-24T01:00:44.737Z,50.31
2022-09-24T01:03:17.119Z,49.85
2022-09-24T01:05:45.047Z,50.19
2022-09-24T01:08:17.942Z,50.05
2022-09-24T01:11:39.117Z,50.00
2022-09-24T01:14:13.871Z,49.86
2022-09-24T01:17:07.824Z,50.09
2022-09-24T01:20:17.431Z,49.99
2022-09-24T01:23:21.074Z,49.98
2022-09-24T01:26:20.131Z,50.15
2022-09-24T01:29:28.372Z,50.26
2022-09-24T01:32:41.133Z,50.26
2022-09-24T01:35:28.571Z,50.38
2022-09-24T01:38:09.698Z,50.48
2022-09-24T01:40:39.937Z,50.41
2022-09-24T01:43:10.967Z,50.79
2022-09-24T01:45:40.032Z,50.86
2022-09-24T01:48:08.786Z,50.76
2022-09-24T01:50:58.054Z,50.70
2022-09-24T01:53:32.144Z,50.81
2022-09-24T01:56:21.530Z,50.44
2022-09-24T01:59:03.202Z,50.65
2022-09-24T02:01:53.006Z,50.56
2022-09-24T02:04:23.854Z,50.38
2022-09-24T02:07:04.200Z,50.54
2022-09-24T02:09:43.721Z,50.31
2022-09-24T02:12:17.351Z,50.53
2022-09-24T02:14:54.864Z,50.63
2022-09-24T02:17:30.478Z,50.68
2022-09-24T02:20:02.910Z,50.44
2022-09-24T02:22:32.309Z,50.45
2022-09-24T02:25:04.155Z,50.73
2022-09-24T02:27:32.173Z,50.58
2022-09-24T02:30:00.692Z,50.47
2022-09-24T02:32:34.309Z,50.79
2022-09-24T02:35:08.103Z,50.44
2022-09-24T02:37:41.545Z,49.94
2022-09-24T02:40:13.904Z,50.37
2022-09-24T02:42:43.548Z,50.81
2022-09-24T02:45:12.493Z,50.92
2022-09-24T02:47:40.240Z,51.00
2022-09-24T02:50:08.696Z,50.92
2022-09-24T02:52:36.433Z,50.83
2022-09-24T02:55:05.031Z,50.80
2022-09-24T02:57:33.109Z,50.98
2022-09-24T03:00:00.965Z,51.00
2022-09-24T03:02:28.903Z,51.16
2022-09-24T03:04:56.816Z,51.37
2022-09-24T03:07:24.501Z,51.19
2022-09-24T03:09:52.243Z,51.09
2022-09-24T03:12:19.919Z,51.08
2022-09-24T03:14:47.678Z,51.33
2022-09-24T03:17:15.385Z,51.32
2022-09-24T03:19:43.278Z,51.34
2022-09-24T03:22:11.015Z,51.39
2022-09-24T03:24:38.788Z,51.60
2022-09-24T03:27:06.507Z,51.52
2022-09-24T03:29:52.860Z,51.14
2022-09-24T03:32:20.668Z,51.17
2022-09-24T03:34:48.409Z,51.45
2022-09-24T03:37:16.181Z,51.42
2022-09-24T03:39:43.935Z,51.22
2022-09-24T03:42:11.702Z,51.49
2022-09-24T03:44:39.439Z,51.46
2022-09-24T03:47:07.598Z,51.38
2022-09-24T03:49:35.436Z,51.51
2022-09-24T03:52:03.239Z,51.54
2022-09-24T03:54:31.310Z,51.24
2022-09-24T03:56:59.041Z,51.28
2022-09-24T03:59:26.810Z,51.10
2022-09-24T04:01:55.350Z,51.38
2022-09-24T04:04:23.152Z,51.56
2022-09-24T04:06:52.381Z,51.21
2022-09-24T04:09:20.114Z,51.33
2022-09-24T04:11:47.823Z,51.42
2022-09-24T04:14:15.534Z,51.51
2022-09-24T04:16:43.256Z,51.52
2022-09-24T04:19:12.088Z,51.68
2022-09-24T04:21:39.869Z,51.69
2022-09-24T04:24:07.882Z,51.46
2022-09-24T04:26:35.784Z,51.89
2022-09-24T04:29:05.383Z,51.67
2022-09-24T04:31:33.483Z,51.68
2022-09-24T04:34:02.111Z,51.71
2022-09-24T04:36:29.823Z,51.55
2022-09-24T04:38:57.633Z,51.68
2022-09-24T04:41:25.408Z,51.76
2022-09-24T04:43:53.164Z,51.68
2022-09-24T04:46:20.940Z,51.83
2022-09-24T04:48:49.042Z,51.89
2022-09-24T04:51:19.432Z,51.90
2022-09-24T04:53:48.067Z,51.80
2022-09-24T04:56:15.797Z,51.93
2022-09-24T04:58:44.715Z,52.02
2022-09-24T05:01:13.468Z,51.90
2022-09-24T05:03:41.381Z,51.95
2022-09-24T05:06:09.100Z,52.03
2022-09-24T05:08:36.827Z,52.06
2022-09-24T05:11:04.655Z,51.94
2022-09-24T05:13:32.467Z,52.11
2022-09-24T05:16:01.061Z,52.43
2022-09-24T05:18:29.063Z,52.56
2022-09-24T05:20:56.855Z,52.57
2022-09-24T05:23:25.190Z,52.40
2022-09-24T05:26:11.750Z,52.52
2022-09-24T05:28:41.075Z,52.35
2022-09-24T05:31:10.732Z,52.42
2022-09-24T05:33:38.952Z,52.55
2022-09-24T05:36:06.850Z,52.55
2022-09-24T05:38:34.604Z,52.59
2022-09-24T05:41:02.454Z,52.49
2022-09-24T05:43:31.801Z,52.59
2022-09-24T05:45:59.544Z,52.52
2022-09-24T05:48:27.269Z,52.88
2022-09-24T05:50:55.505Z,52.68
2022-09-24T05:53:24.699Z,52.88
2022-09-24T05:55:52.762Z,52.67
2022-09-24T05:58:20.750Z,52.91
2022-09-24T06:00:48.621Z,52.62
2022-09-24T06:03:18.546Z,52.96
2022-09-24T06:05:51.748Z,52.88
2022-09-24T06:08:21.035Z,53.11
2022-09-24T06:10:49.382Z,53.12
2022-09-24T06:13:19.445Z,53.30
2022-09-24T06:15:47.370Z,53.21
2022-09-24T06:18:15.500Z,53.25
2022-09-24T06:20:44.446Z,53.11
2022-09-24T06:23:12.224Z,52.95
2022-09-24T06:25:40.178Z,53.10
2022-09-24T06:28:07.960Z,52.91
2022-09-24T06:30:44.336Z,52.70
2022-09-24T06:33:13.961Z,52.78
2022-09-24T06:35:44.044Z,53.02
2022-09-24T06:38:15.394Z,52.91
2022-09-24T06:40:45.606Z,52.82
2022-09-24T06:43:14.430Z,53.05
2022-09-24T06:45:45.357Z,53.10
2022-09-24T06:48:14.741Z,53.21
2022-09-24T06:50:45.405Z,53.09
2022-09-24T06:53:14.500Z,52.84
2022-09-24T06:55:42.898Z,52.60
2022-09-24T06:58:22.097Z,52.52
2022-09-24T07:00:55.111Z,52.47
2022-09-24T07:03:22.925Z,52.06
2022-09-24T07:05:50.698Z,51.98
2022-09-24T07:08:18.778Z,52.01
2022-09-24T07:10:52.515Z,52.10
2022-09-24T07:13:23.450Z,51.90
2022-09-24T07:15:52.814Z,51.45
2022-09-24T07:18:24.573Z,51.61
2022-09-24T07:20:57.364Z,51.46
2022-09-24T07:23:26.228Z,52.06
2022-09-24T07:25:57.247Z,51.88
2022-09-24T07:28:25.519Z,51.34
2022-09-24T07:31:00.521Z,50.99
2022-09-24T07:33:30.842Z,50.78
2022-09-24T07:35:58.549Z,50.55
2022-09-24T07:38:27.017Z,50.34
2022-09-24T07:40:59.409Z,50.53
2022-09-24T07:43:29.186Z,50.24
2022-09-24T07:45:58.225Z,50.56
2022-09-24T07:48:26.535Z,50.30
2022-09-24T07:50:55.632Z,50.09
2022-09-24T07:53:24.264Z,50.95
2022-09-24T07:55:52.704Z,51.15
2022-09-24T07:58:20.588Z,50.21
2022-09-24T08:00:48.307Z,50.00
2022-09-24T08:03:18.563Z,49.99
2022-09-24T08:05:46.761Z,49.80
2022-09-24T08:08:15.310Z,49.54
2022-09-24T08:10:43.569Z,49.31
2022-09-24T08:13:11.605Z,49.58
2022-09-24T08:15:39.969Z,49.53
2022-09-24T08:18:07.896Z,49.55
2022-09-24T08:20:38.481Z,49.44
2022-09-24T08:23:12.735Z,49.45
2022-09-24T08:25:40.426Z,49.53
2022-09-24T08:28:12.155Z,49.79
2022-09-24T08:30:40.542Z,50.16
2022-09-24T08:33:09.834Z,50.47
2022-09-24T08:35:41.260Z,50.80
2022-09-24T08:38:09.602Z,50.83
2022-09-24T08:40:46.655Z,51.01
2022-09-24T08:43:37.859Z,50.81
2022-09-24T08:46:44.105Z,50.54
2022-09-24T08:49:20.724Z,50.35
2022-09-24T08:52:09.393Z,50.43
2022-09-24T08:54:38.420Z,50.48
2022-09-24T08:57:14.659Z,50.39
2022-09-24T08:59:50.054Z,50.49
2022-09-24T09:02:48.185Z,50.25
2022-09-24T09:05:49.450Z,50.37
2022-09-24T09:08:50.395Z,50.70
2022-09-24T09:11:25.807Z,50.43
2022-09-24T09:14:00.258Z,50.38
2022-09-24T09:16:36.892Z,50.42
2022-09-24T09:19:09.659Z,50.13
2022-09-24T09:21:43.847Z,49.92
2022-09-24T09:24:23.439Z,49.82
2022-09-24T09:26:56.176Z,49.71
2022-09-24T09:29:28.035Z,50.05
2022-09-24T09:32:39.519Z,50.08
2022-09-24T09:35:36.017Z,49.81
2022-09-24T09:38:47.696Z,49.84
2022-09-24T09:41:39.553Z,49.78
2022-09-24T09:44:30.677Z,49.71
2022-09-24T09:47:41.382Z,49.82
2022-09-24T09:50:37.293Z,49.60
2022-09-24T09:53:05.697Z,49.79
2022-09-24T09:55:38.348Z,49.56
2022-09-24T09:58:21.927Z,49.59
2022-09-24T10:00:50.410Z,49.57
2022-09-24T10:03:31.664Z,49.60
2022-09-24T10:06:06.667Z,49.80
2022-09-24T10:08:34.399Z,49.66
2022-09-24T10:11:03.535Z,49.71
2022-09-24T10:13:34.347Z,49.51
2022-09-24T10:16:09.091Z,49.61
2022-09-24T10:18:43.498Z,49.37
2022-09-24T10:21:15.410Z,49.25
2022-09-24T10:23:49.353Z,49.33
2022-09-24T10:26:17.943Z,49.27
2022-09-24T10:29:08.709Z,49.05
2022-09-24T10:31:40.006Z,48.77
2022-09-24T10:34:24.768Z,49.02
2022-09-24T10:37:13.446Z,48.55
2022-09-24T10:39:42.049Z,48.70
2022-09-24T10:42:29.315Z,48.74
2022-09-24T10:45:04.679Z,49.02
2022-09-24T10:48:08.929Z,49.15
2022-09-24T10:50:45.140Z,48.83
2022-09-24T10:53:52.751Z,49.03
2022-09-24T10:56:47.426Z,48.93
2022-09-24T10:59:40.873Z,49.16
2022-09-24T11:02:20.403Z,49.15
2022-09-24T11:04:54.712Z,49.39
2022-09-24T11:07:55.132Z,49.40
2022-09-24T11:10:44.300Z,49.32
2022-09-24T11:13:17.618Z,49.29
2022-09-24T11:16:33.862Z,49.41
2022-09-24T11:19:28.586Z,49.16
2022-09-24T11:22:16.740Z,49.13
2022-09-24T11:24:44.426Z,49.71
2022-09-24T11:27:42.889Z,49.67
2022-09-24T11:30:13.610Z,49.95
2022-09-24T11:33:25.723Z,49.91
2022-09-24T11:36:22.395Z,49.51
2022-09-24T11:38:55.929Z,50.07
2022-09-24T11:41:44.451Z,50.27
2022-09-24T11:45:00.432Z,50.30
2022-09-24T11:47:54.368Z,50.62
2022-09-24T11:50:59.461Z,50.60
2022-09-24T11:53:52.354Z,50.65
2022-09-24T11:56:35.837Z,50.88
2022-09-24T11:59:14.268Z,50.92
2022-09-24T12:02:01.316Z,51.67
2022-09-24T12:04:52.260Z,51.88
2022-09-24T12:07:53.464Z,52.46
2022-09-24T12:10:39.823Z,53.12
2022-09-24T12:13:28.489Z,53.63
2022-09-24T12:16:19.644Z,53.88
2022-09-24T12:19:12.559Z,54.46
2022-09-24T12:21:45.353Z,54.69
2022-09-24T12:24:36.415Z,54.70
2022-09-24T12:27:19.386Z,54.51
2022-09-24T12:30:33.114Z,54.51
2022-09-24T12:33:09.583Z,54.88
2022-09-24T12:36:11.784Z,54.71
2022-09-24T12:38:50.438Z,55.27
2022-09-24T12:41:51.492Z,55.02
2022-09-24T12:44:47.296Z,55.10
2022-09-24T12:47:23.272Z,55.91
2022-09-24T12:49:59.160Z,56.04
2022-09-24T12:52:43.276Z,55.91
2022-09-24T12:55:27.009Z,56.03
2022-09-24T12:58:08.377Z,56.42
2022-09-24T13:00:43.845Z,56.47
2022-09-24T13:03:35.778Z,56.37
2022-09-24T13:06:22.696Z,56.47
2022-09-24T13:08:50.850Z,56.75
2022-09-24T13:11:31.986Z,56.85
2022-09-24T13:14:12.656Z,57.06
2022-09-24T13:16:43.262Z,57.25
2022-09-24T13:19:44.526Z,56.65
2022-09-24T13:22:31.463Z,56.96
2022-09-24T13:25:23.527Z,56.97
2022-09-24T13:28:04.065Z,57.17
2022-09-24T13:30:38.783Z,57.62
2022-09-24T13:33:32.045Z,57.47
2022-09-24T13:36:33.607Z,56.63
2022-09-24T13:39:32.571Z,57.10
2022-09-24T13:42:28.169Z,56.97
2022-09-24T13:45:08.790Z,57.26
2022-09-24T13:47:47.968Z,57.24
2022-09-24T13:50:29.302Z,57.12
2022-09-24T13:53:08.432Z,57.32
2022-09-24T13:55:59.714Z,57.05
2022-09-24T13:58:33.534Z,56.83
2022-09-24T14:01:12.860Z,56.80
2022-09-24T14:03:42.886Z,56.94
2022-09-24T14:06:17.546Z,56.75
2022-09-24T14:08:47.148Z,56.99
2022-09-24T14:11:27.425Z,56.71
2022-09-24T14:13:56.428Z,56.81
2022-09-24T14:16:27.190Z,56.95
2022-09-24T14:19:03.580Z,56.28
2022-09-24T14:21:42.327Z,56.37
2022-09-24T14:24:29.185Z,56.54
2022-09-24T14:27:01.673Z,56.25
2022-09-24T14:29:48.147Z,56.25
2022-09-24T14:32:29.753Z,56.34
2022-09-24T14:35:26.634Z,56.51
2022-09-24T14:38:08.906Z,56.04
2022-09-24T14:40:48.050Z,56.22
2022-09-24T14:43:39.303Z,56.40
2022-09-24T14:46:23.360Z,56.28
2022-09-24T14:48:52.329Z,56.58
2022-09-24T14:51:29.781Z,56.66
2022-09-24T14:54:19.059Z,56.49
2022-09-24T14:56:46.846Z,56.54
2022-09-24T14:59:17.805Z,56.61
2022-09-24T15:01:45.718Z,56.66
2022-09-24T15:04:23.387Z,56.99
2022-09-24T15:06:51.228Z,56.98
2022-09-24T15:09:30.822Z,57.57
2022-09-24T15:12:33.097Z,56.67
2022-09-24T15:15:05.045Z,56.90
2022-09-24T15:17:35.374Z,57.17
2022-09-24T15:20:05.408Z,56.85
2022-09-24T15:22:33.126Z,56.87
2022-09-24T15:25:02.285Z,56.89
2022-09-24T15:27:38.311Z,56.96
2022-09-24T15:30:11.052Z,56.48
2022-09-24T15:32:38.809Z,56.74
2022-09-24T15:35:10.045Z,56.35
2022-09-24T15:37:39.525Z,56.39
2022-09-24T15:40:25.529Z,56.09
2022-09-24T15:42:53.388Z,56.21
2022-09-24T15:45:24.212Z,56.87
2022-09-24T15:47:53.468Z,56.54
2022-09-24T15:50:23.536Z,56.46
2022-09-24T15:52:56.662Z,56.48
2022-09-24T15:55:24.637Z,56.27
2022-09-24T15:57:52.399Z,56.38
2022-09-24T16:00:23.908Z,56.92
2022-09-24T16:02:57.460Z,56.59
2022-09-24T16:05:25.407Z,55.92
2022-09-24T16:07:53.138Z,56.36
2022-09-24T16:10:21.036Z,56.76
2022-09-24T16:12:48.830Z,56.76
2022-09-24T16:15:16.939Z,56.98
2022-09-24T16:17:44.830Z,56.91
2022-09-24T16:20:12.839Z,56.96
2022-09-24T16:22:40.592Z,56.95
2022-09-24T16:25:08.951Z,57.10
2022-09-24T16:27:37.620Z,57.10
2022-09-24T16:30:06.660Z,57.25
2022-09-24T16:32:34.430Z,57.48
2022-09-24T16:35:02.318Z,57.59
2022-09-24T16:37:30.264Z,57.64
2022-09-24T16:39:58.155Z,57.33
2022-09-24T16:42:26.504Z,57.40
2022-09-24T16:44:54.285Z,57.46
2022-09-24T16:47:22.159Z,57.42
2022-09-24T16:49:50.002Z,57.40
2022-09-24T16:52:17.952Z,57.42
2022-09-24T16:54:45.764Z,57.27
2022-09-24T16:57:13.505Z,57.43
2022-09-24T16:59:41.295Z,57.58
2022-09-24T17:02:12.425Z,57.48
2022-09-24T17:04:40.558Z,57.71
2022-09-24T17:07:10.503Z,57.93
2022-09-24T17:09:56.871Z,58.03
2022-09-24T17:12:24.820Z,58.06
2022-09-24T17:14:52.834Z,58.24
2022-09-24T17:17:20.624Z,58.31
2022-09-24T17:19:48.418Z,58.28
2022-09-24T17:22:16.201Z,58.28
2022-09-24T17:24:44.003Z,58.42
2022-09-24T17:27:11.780Z,58.56
2022-09-24T17:29:39.569Z,58.40
2022-09-24T17:32:07.339Z,58.53
2022-09-24T17:34:35.148Z,58.58
2022-09-24T17:37:02.983Z,58.69
2022-09-24T17:39:30.963Z,58.69
2022-09-24T17:41:58.831Z,58.66
2022-09-24T17:44:26.619Z,58.71
2022-09-24T17:46:54.604Z,58.76
2022-09-24T17:49:23.155Z,58.65
2022-09-24T17:51:50.974Z,58.61
2022-09-24T17:54:21.367Z,58.67
2022-09-24T17:56:49.711Z,58.68
2022-09-24T17:59:17.617Z,58.46
2022-09-24T18:01:46.397Z,58.77
2022-09-24T18:04:18.352Z,58.84
2022-09-24T18:06:48.116Z,58.97
2022-09-24T18:09:18.226Z,59.10
2022-09-24T18:11:51.488Z,59.11
2022-09-24T18:14:22.312Z,59.15
2022-09-24T18:16:51.126Z,59.32
2022-09-24T18:19:18.956Z,59.35
2022-09-24T18:21:48.863Z,59.27
2022-09-24T18:24:17.504Z,59.30
2022-09-24T18:26:48.399Z,59.37
2022-09-24T18:29:19.279Z,59.52
2022-09-24T18:31:47.150Z,59.63
2022-09-24T18:34:17.362Z,59.94
2022-09-24T18:36:45.920Z,59.91
2022-09-24T18:39:21.999Z,59.94
2022-09-24T18:41:52.787Z,59.81
2022-09-24T18:44:20.689Z,60.01
2022-09-24T18:46:49.991Z,60.09
2022-09-24T18:49:18.000Z,60.18
2022-09-24T18:51:46.695Z,60.37
2022-09-24T18:54:15.671Z,60.31
2022-09-24T18:56:43.737Z,60.35
2022-09-24T18:59:15.689Z,60.60
2022-09-24T19:01:45.436Z,60.49
2022-09-24T19:04:14.567Z,60.62
2022-09-24T19:06:45.706Z,60.56
2022-09-24T19:09:17.271Z,60.71
2022-09-24T19:11:46.257Z,60.87
2022-09-24T19:14:18.075Z,60.75
2022-09-24T19:16:47.452Z,60.71
2022-09-24T19:19:16.292Z,60.41
2022-09-24T19:21:44.200Z,59.93
2022-09-24T19:24:11.946Z,59.90
2022-09-24T19:26:39.792Z,59.98
2022-09-24T19:29:07.666Z,59.93
2022-09-24T19:31:42.201Z,59.81
2022-09-24T19:34:13.547Z,59.66
2022-09-24T19:36:43.413Z,59.64
2022-09-24T19:39:15.834Z,59.31
2022-09-24T19:41:44.790Z,59.01
2022-09-24T19:44:13.125Z,58.79
2022-09-24T19:46:41.397Z,58.91
2022-09-24T19:49:09.395Z,59.26
2022-09-24T19:51:37.602Z,59.48
2022-09-24T19:54:08.682Z,59.93
2022-09-24T19:56:37.537Z,59.60
2022-09-24T19:59:05.968Z,59.70
2022-09-24T20:01:34.558Z,59.78
2022-09-24T20:04:07.456Z,60.00
2022-09-24T20:06:37.120Z,59.82
2022-09-24T20:09:05.665Z,60.00
2022-09-24T20:11:33.899Z,60.13
2022-09-24T20:14:01.956Z,60.10
2022-09-24T20:16:33.530Z,60.30
2022-09-24T20:19:03.422Z,60.31
2022-09-24T20:21:35.117Z,60.28
2022-09-24T20:24:05.401Z,60.16
2022-09-24T20:26:52.814Z,60.23
2022-09-24T20:29:22.056Z,60.19
2022-09-24T20:31:53.433Z,60.17
2022-09-24T20:34:34.473Z,59.95
2022-09-24T20:37:05.693Z,59.64
2022-09-24T20:39:33.871Z,59.78
2022-09-24T20:42:06.005Z,59.54
2022-09-24T20:44:34.548Z,59.38
2022-09-24T20:47:02.545Z,59.72
2022-09-24T20:49:31.773Z,59.80
2022-09-24T20:52:01.445Z,60.10
2022-09-24T20:54:29.589Z,60.29
2022-09-24T20:56:57.864Z,60.49
2022-09-24T20:59:27.207Z,60.27
2022-09-24T21:01:55.670Z,60.25
2022-09-24T21:04:24.049Z,60.43
2022-09-24T21:06:51.913Z,60.17
2022-09-24T21:09:19.760Z,60.62
2022-09-24T21:11:50.227Z,60.38
2022-09-24T21:14:18.652Z,60.50
2022-09-24T21:16:47.492Z,60.58
2022-09-24T21:19:15.954Z,60.65
2022-09-24T21:21:43.726Z,60.58
2022-09-24T21:24:14.599Z,60.61
2022-09-24T21:26:45.347Z,60.44
2022-09-24T21:29:18.926Z,60.45
2022-09-24T21:31:48.034Z,60.46
2022-09-24T21:34:19.879Z,60.11
2022-09-24T21:36:47.806Z,60.17
2022-09-24T21:39:20.120Z,60.37
2022-09-24T21:41:49.994Z,60.13
2022-09-24T21:44:19.310Z,60.39
2022-09-24T21:46:50.733Z,60.68
2022-09-24T21:49:19.514Z,60.69
2022-09-24T21:51:47.521Z,60.57
2022-09-24T21:54:18.276Z,60.62
2022-09-24T21:56:46.938Z,60.64
2022-09-24T21:59:34.912Z,60.75
2022-09-24T22:02:04.231Z,60.73
2022-09-24T22:04:33.318Z,60.91
2022-09-24T22:07:01.874Z,60.93
2022-09-24T22:09:32.261Z,61.56
2022-09-24T22:12:04.705Z,61.25
2022-09-24T22:14:34.844Z,60.95
2022-09-24T22:17:04.102Z,61.15
2022-09-24T22:19:32.050Z,61.01
2022-09-24T22:22:00.081Z,61.03
2022-09-24T22:24:29.176Z,61.21
2022-09-24T22:26:57.401Z,61.07
2022-09-24T22:29:25.374Z,61.32
2022-09-24T22:31:53.245Z,61.14
2022-09-24T22:34:39.857Z,61.48
2022-09-24T22:37:08.071Z,60.96
2022-09-24T22:39:36.182Z,61.32
2022-09-24T22:42:05.206Z,61.36
2022-09-24T22:44:33.055Z,61.30
2022-09-24T22:47:00.856Z,61.10
2022-09-24T22:49:29.104Z,60.80
2022-09-24T22:51:56.965Z,60.95
2022-09-24T22:54:24.966Z,60.92
2022-09-24T22:56:52.772Z,61.20
2022-09-24T22:59:20.525Z,61.13
2022-09-24T23:01:48.439Z,60.94
2022-09-24T23:04:16.285Z,61.00
2022-09-24T23:06:44.437Z,60.70
2022-09-24T23:09:12.449Z,60.99
2022-09-24T23:11:40.342Z,60.73
2022-09-24T23:14:14.363Z,60.80
2022-09-24T23:16:43.512Z,60.96
2022-09-24T23:19:19.942Z,60.82
2022-09-24T23:21:47.821Z,60.57
2022-09-24T23:24:18.375Z,60.63
2022-09-24T23:26:46.618Z,60.39
2022-09-24T23:29:15.314Z,60.53
2022-09-24T23:31:43.391Z,60.57
2022-09-24T23:34:13.513Z,60.73
2022-09-24T23:36:42.108Z,60.61
2022-09-24T23:39:10.520Z,60.69
2022-09-24T23:41:38.468Z,60.71
2022-09-24T23:44:06.813Z,60.97
2022-09-24T23:46:34.777Z,60.90
2022-09-24T23:49:04.512Z,60.96
2022-09-24T23:51:32.631Z,61.01
2022-09-24T23:54:00.379Z,60.74
2022-09-24T23:56:28.548Z,60.78
2022-09-24T23:58:56.624Z,60.71
